Big Bear Station Historical Data
Daily Summary for July 1, 2019 Units:  English    Metric   Both
Next Day »
Daily Weekly Monthly Yearly Custom
  High: Low: Average:
Temperature: 76.6 °F 48.7 °F 57.2 °F
Dew Point: 39.9 °F 25.5 °F 30.5 °F
Humidity: 65% 15% 39%
Wind Speed: 2.2mph 0mph 0.1mph
Wind Gust: -999mph - -
Wind- - SW
Pressure: 23.62 in 23.59 in -
Precipitation: 0 in    
Historical Graphs
 
 
Tabular Data for July 1, 2019
Time Temperature Dew Point Pressure Wind Wind Speed Wind Gust Humidity Rainfall Rate (Hourly)
00:00 52.9 °F 27.3 °F 23.62 in Calm   -999 mph 37% 0.00 in
00:16 52.5 °F 27 °F 23.61 in Calm   -999 mph 37% 0.00 in
00:31 52.2 °F 27.3 °F 23.61 in Calm   -999 mph 38% 0.00 in
00:46 52.3 °F 29.3 °F 23.61 in Calm   -999 mph 41% 0.00 in
01:01 52.3 °F 31.6 °F 23.61 in Calm   -999 mph 45% 0.00 in
01:16 51.6 °F 31.5 °F 23.61 in Calm   -999 mph 46% 0.00 in
01:32 52 °F 31.3 °F 23.61 in Calm   -999 mph 45% 0.00 in
01:47 51.3 °F 29 °F 23.61 in Calm   -999 mph 42% 0.00 in
02:02 51.3 °F 32.3 °F 23.61 in Calm   -999 mph 48% 0.00 in
02:18 50.7 °F 30.7 °F 23.60 in Calm   -999 mph 46% 0.00 in
02:33 50.5 °F 33.5 °F 23.60 in Calm   -999 mph 52% 0.00 in
02:48 50.5 °F 33.5 °F 23.60 in Calm   -999 mph 52% 0.00 in
03:03 50.2 °F 33.7 °F 23.60 in Calm   -999 mph 53% 0.00 in
03:19 50 °F 33.5 °F 23.59 in Calm   -999 mph 53% 0.00 in
03:34 50.4 °F 31.4 °F 23.59 in Calm   -999 mph 48% 0.00 in
03:49 50.5 °F 30.5 °F 23.59 in Calm   -999 mph 46% 0.00 in
04:04 50.4 °F 30.9 °F 23.59 in Calm   -999 mph 47% 0.00 in
04:19 49.8 °F 28.2 °F 23.59 in Calm   -999 mph 43% 0.00 in
04:35 49.6 °F 28.6 °F 23.59 in Calm   -999 mph 44% 0.00 in
04:50 50.5 °F 29.4 °F 23.59 in Calm   -999 mph 44% 0.00 in
05:05 50 °F 29.5 °F 23.59 in Calm   -999 mph 45% 0.00 in
05:20 49.5 °F 31.6 °F 23.59 in Calm   -999 mph 50% 0.00 in
05:35 49.3 °F 31.4 °F 23.60 in Calm   -999 mph 50% 0.00 in
05:51 48.9 °F 31.1 °F 23.60 in Calm   -999 mph 50% 0.00 in
06:06 48.7 °F 29.9 °F 23.60 in Calm   -999 mph 48% 0.00 in
06:21 49.3 °F 34.7 °F 23.60 in Calm   -999 mph 57% 0.00 in
06:36 49.6 °F 35 °F 23.60 in Calm   -999 mph 57% 0.00 in
06:52 49.5 °F 36.2 °F 23.60 in Calm   -999 mph 60% 0.00 in
07:07 51.3 °F 39.9 °F 23.60 in Calm   -999 mph 65% 0.00 in
07:22 54.5 °F 35.7 °F 23.60 in Calm   -999 mph 49% 0.00 in
07:37 55.6 °F 29.1 °F 23.60 in Calm   -999 mph 36% 0.00 in
07:52 56.8 °F 30.1 °F 23.60 in Calm   -999 mph 36% 0.00 in
08:08 58.5 °F 26.3 °F 23.61 in Calm   -999 mph 29% 0.00 in
08:23 61.2 °F 26 °F 23.61 in Calm   -999 mph 26% 0.00 in
08:38 63 °F 26.6 °F 23.61 in Calm   -999 mph 25% 0.00 in
08:53 64.6 °F 28.9 °F 23.61 in Calm   -999 mph 26% 0.00 in
09:08 65.5 °F 28.7 °F 23.61 in Calm   -999 mph 25% 0.00 in
09:24 66.6 °F 30.6 °F 23.61 in Calm   -999 mph 26% 0.00 in
09:39 67.5 °F 27.3 °F 23.61 in Calm   -999 mph 22% 0.00 in
09:54 68.5 °F 25.8 °F 23.61 in Calm   -999 mph 20% 0.00 in
10:09 69.8 °F 31.4 °F 23.61 in Calm   -999 mph 24% 0.00 in
10:24 70 °F 31.5 °F 23.61 in Calm   -999 mph 24% 0.00 in
10:40 70.7 °F 30 °F 23.61 in ENE 1.1 mph -999 mph 22% 0.00 in
10:55 71.1 °F 33.5 °F 23.61 in NNW 2.2 mph -999 mph 25% 0.00 in
11:10 71.4 °F 29.4 °F 23.61 in Calm   -999 mph 21% 0.00 in
11:25 73.9 °F 29 °F 23.61 in Calm   -999 mph 19% 0.00 in
11:41 73.9 °F 30.3 °F 23.61 in Calm   -999 mph 20% 0.00 in
11:57 74.7 °F 27 °F 23.61 in Calm   -999 mph 17% 0.00 in
12:12 76.6 °F 25.5 °F 23.61 in WNW 1.7 mph -999 mph 15% 0.00 in
Big Bear CA Weather